sensor_id;sensor_type;location;lat;lon;timestamp;pressure;altitude;pressure_sealevel;temperature
8227;BMP180;4154;48.810;9.012;2023-02-28T00:00:28;97641.00;;;-2.10
8227;BMP180;4154;48.810;9.012;2023-02-28T00:02:54;97636.00;;;-2.10
8227;BMP180;4154;48.810;9.012;2023-02-28T00:05:23;97643.00;;;-2.10
8227;BMP180;4154;48.810;9.012;2023-02-28T00:07:50;97633.00;;;-2.10
8227;BMP180;4154;48.810;9.012;2023-02-28T00:10:23;97637.00;;;-2.10
8227;BMP180;4154;48.810;9.012;2023-02-28T00:12:50;97642.00;;;-2.20
8227;BMP180;4154;48.810;9.012;2023-02-28T00:15:16;97636.00;;;-2.20
8227;BMP180;4154;48.810;9.012;2023-02-28T00:17:43;97633.00;;;-2.20
8227;BMP180;4154;48.810;9.012;2023-02-28T00:20:10;97642.00;;;-2.20
8227;BMP180;4154;48.810;9.012;2023-02-28T00:22:47;97645.00;;;-2.30
8227;BMP180;4154;48.810;9.012;2023-02-28T00:25:16;97645.00;;;-2.30
8227;BMP180;4154;48.810;9.012;2023-02-28T00:27:42;97645.00;;;-2.30
8227;BMP180;4154;48.810;9.012;2023-02-28T00:30:22;97641.00;;;-2.30
8227;BMP180;4154;48.810;9.012;2023-02-28T00:32:48;97643.00;;;-2.30
8227;BMP180;4154;48.810;9.012;2023-02-28T00:35:15;97641.00;;;-2.30
8227;BMP180;4154;48.810;9.012;2023-02-28T00:37:41;97635.00;;;-2.40
8227;BMP180;4154;48.810;9.012;2023-02-28T00:40:08;97633.00;;;-2.40
8227;BMP180;4154;48.810;9.012;2023-02-28T00:42:35;97643.00;;;-2.40
8227;BMP180;4154;48.810;9.012;2023-02-28T00:45:02;97637.00;;;-2.40
8227;BMP180;4154;48.810;9.012;2023-02-28T00:47:30;97647.00;;;-2.40
8227;BMP180;4154;48.810;9.012;2023-02-28T00:49:56;97643.00;;;-2.40
8227;BMP180;4154;48.810;9.012;2023-02-28T00:52:22;97635.00;;;-2.50
8227;BMP180;4154;48.810;9.012;2023-02-28T00:54:47;97632.00;;;-2.40
8227;BMP180;4154;48.810;9.012;2023-02-28T00:57:13;97628.00;;;-2.40
8227;BMP180;4154;48.810;9.012;2023-02-28T00:59:39;97635.00;;;-2.40
8227;BMP180;4154;48.810;9.012;2023-02-28T01:02:04;97626.00;;;-2.50
8227;BMP180;4154;48.810;9.012;2023-02-28T01:04:30;97632.00;;;-2.50
8227;BMP180;4154;48.810;9.012;2023-02-28T01:06:56;97640.00;;;-2.50
8227;BMP180;4154;48.810;9.012;2023-02-28T01:09:22;97628.00;;;-2.50
8227;BMP180;4154;48.810;9.012;2023-02-28T01:11:48;97624.00;;;-2.40
8227;BMP180;4154;48.810;9.012;2023-02-28T01:14:15;97636.00;;;-2.50
8227;BMP180;4154;48.810;9.012;2023-02-28T01:16:42;97618.00;;;-2.50
8227;BMP180;4154;48.810;9.012;2023-02-28T01:19:08;97622.00;;;-2.50
8227;BMP180;4154;48.810;9.012;2023-02-28T01:21:34;97624.00;;;-2.50
8227;BMP180;4154;48.810;9.012;2023-02-28T01:24:01;97623.00;;;-2.60
8227;BMP180;4154;48.810;9.012;2023-02-28T01:26:27;97624.00;;;-2.60
8227;BMP180;4154;48.810;9.012;2023-02-28T01:28:53;97620.00;;;-2.60
8227;BMP180;4154;48.810;9.012;2023-02-28T01:31:21;97626.00;;;-2.50
8227;BMP180;4154;48.810;9.012;2023-02-28T01:33:47;97626.00;;;-2.50
8227;BMP180;4154;48.810;9.012;2023-02-28T01:38:42;97625.00;;;-2.50
8227;BMP180;4154;48.810;9.012;2023-02-28T01:41:14;97622.00;;;-2.50
8227;BMP180;4154;48.810;9.012;2023-02-28T01:46:13;97629.00;;;-2.60
8227;BMP180;4154;48.810;9.012;2023-02-28T01:48:54;97637.00;;;-2.60
8227;BMP180;4154;48.810;9.012;2023-02-28T01:51:40;97626.00;;;-2.60
8227;BMP180;4154;48.810;9.012;2023-02-28T01:54:18;97634.00;;;-2.60
8227;BMP180;4154;48.810;9.012;2023-02-28T01:57:03;97632.00;;;-2.60
8227;BMP180;4154;48.810;9.012;2023-02-28T01:59:40;97617.00;;;-2.60
8227;BMP180;4154;48.810;9.012;2023-02-28T02:02:12;97617.00;;;-2.70
8227;BMP180;4154;48.810;9.012;2023-02-28T02:04:55;97622.00;;;-2.60
8227;BMP180;4154;48.810;9.012;2023-02-28T02:07:24;97615.00;;;-2.60
8227;BMP180;4154;48.810;9.012;2023-02-28T02:10:06;97609.00;;;-2.70
8227;BMP180;4154;48.810;9.012;2023-02-28T02:13:14;97596.00;;;-2.70
8227;BMP180;4154;48.810;9.012;2023-02-28T02:18:52;97605.00;;;-2.60
8227;BMP180;4154;48.810;9.012;2023-02-28T02:30:19;97595.00;;;-2.60
8227;BMP180;4154;48.810;9.012;2023-02-28T02:33:22;97588.00;;;-2.60
8227;BMP180;4154;48.810;9.012;2023-02-28T02:38:36;97588.00;;;-2.60
8227;BMP180;4154;48.810;9.012;2023-02-28T02:41:12;97591.00;;;-2.60
8227;BMP180;4154;48.810;9.012;2023-02-28T02:43:49;97592.00;;;-2.60
8227;BMP180;4154;48.810;9.012;2023-02-28T02:46:29;97598.00;;;-2.60
8227;BMP180;4154;48.810;9.012;2023-02-28T02:49:02;97601.00;;;-2.60
8227;BMP180;4154;48.810;9.012;2023-02-28T02:51:32;97594.00;;;-2.60
8227;BMP180;4154;48.810;9.012;2023-02-28T02:54:09;97597.00;;;-2.60
8227;BMP180;4154;48.810;9.012;2023-02-28T02:56:41;97597.00;;;-2.60
8227;BMP180;4154;48.810;9.012;2023-02-28T02:59:13;97589.00;;;-2.60
8227;BMP180;4154;48.810;9.012;2023-02-28T03:01:41;97599.00;;;-2.50
8227;BMP180;4154;48.810;9.012;2023-02-28T03:04:17;97592.00;;;-2.50
8227;BMP180;4154;48.810;9.012;2023-02-28T03:06:43;97609.00;;;-2.40
8227;BMP180;4154;48.810;9.012;2023-02-28T03:09:09;97601.00;;;-2.40
8227;BMP180;4154;48.810;9.012;2023-02-28T03:11:37;97611.00;;;-2.40
8227;BMP180;4154;48.810;9.012;2023-02-28T03:14:26;97599.00;;;-2.40
8227;BMP180;4154;48.810;9.012;2023-02-28T03:17:39;97601.00;;;-2.40
8227;BMP180;4154;48.810;9.012;2023-02-28T03:23:37;97608.00;;;-2.40
8227;BMP180;4154;48.810;9.012;2023-02-28T03:26:19;97609.00;;;-2.50
8227;BMP180;4154;48.810;9.012;2023-02-28T03:29:15;97602.00;;;-2.60
8227;BMP180;4154;48.810;9.012;2023-02-28T03:31:55;97604.00;;;-2.60
8227;BMP180;4154;48.810;9.012;2023-02-28T03:34:37;97600.00;;;-2.60
8227;BMP180;4154;48.810;9.012;2023-02-28T03:37:11;97601.00;;;-2.70
8227;BMP180;4154;48.810;9.012;2023-02-28T03:40:01;97595.00;;;-2.70
8227;BMP180;4154;48.810;9.012;2023-02-28T03:42:35;97592.00;;;-2.60
8227;BMP180;4154;48.810;9.012;2023-02-28T03:45:13;97586.00;;;-2.60
8227;BMP180;4154;48.810;9.012;2023-02-28T03:47:54;97593.00;;;-2.50
8227;BMP180;4154;48.810;9.012;2023-02-28T03:50:37;97590.00;;;-2.60
8227;BMP180;4154;48.810;9.012;2023-02-28T03:53:18;97588.00;;;-2.50
8227;BMP180;4154;48.810;9.012;2023-02-28T03:55:49;97592.00;;;-2.50
8227;BMP180;4154;48.810;9.012;2023-02-28T03:58:55;97595.00;;;-2.30
8227;BMP180;4154;48.810;9.012;2023-02-28T04:01:31;97595.00;;;-2.40
8227;BMP180;4154;48.810;9.012;2023-02-28T04:03:59;97592.00;;;-2.50
8227;BMP180;4154;48.810;9.012;2023-02-28T04:06:26;97600.00;;;-2.50
8227;BMP180;4154;48.810;9.012;2023-02-28T04:08:52;97612.00;;;-2.40
8227;BMP180;4154;48.810;9.012;2023-02-28T04:11:24;97605.00;;;-2.40
8227;BMP180;4154;48.810;9.012;2023-02-28T04:13:53;97604.00;;;-2.40
8227;BMP180;4154;48.810;9.012;2023-02-28T04:16:19;97600.00;;;-2.40
8227;BMP180;4154;48.810;9.012;2023-02-28T04:18:44;97599.00;;;-2.30
8227;BMP180;4154;48.810;9.012;2023-02-28T04:21:11;97608.00;;;-2.40
8227;BMP180;4154;48.810;9.012;2023-02-28T04:23:37;97594.00;;;-2.40
8227;BMP180;4154;48.810;9.012;2023-02-28T04:26:04;97606.00;;;-2.40
8227;BMP180;4154;48.810;9.012;2023-02-28T04:28:31;97609.00;;;-2.40
8227;BMP180;4154;48.810;9.012;2023-02-28T04:31:04;97606.00;;;-2.40
8227;BMP180;4154;48.810;9.012;2023-02-28T04:33:32;97607.00;;;-2.30
8227;BMP180;4154;48.810;9.012;2023-02-28T04:36:04;97605.00;;;-2.30
8227;BMP180;4154;48.810;9.012;2023-02-28T04:38:38;97596.00;;;-2.30
8227;BMP180;4154;48.810;9.012;2023-02-28T04:41:04;97592.00;;;-2.30
8227;BMP180;4154;48.810;9.012;2023-02-28T04:43:31;97596.00;;;-2.30
8227;BMP180;4154;48.810;9.012;2023-02-28T04:46:01;97595.00;;;-2.30
8227;BMP180;4154;48.810;9.012;2023-02-28T04:48:29;97594.00;;;-2.20
8227;BMP180;4154;48.810;9.012;2023-02-28T04:50:55;97588.00;;;-2.10
8227;BMP180;4154;48.810;9.012;2023-02-28T04:53:21;97593.00;;;-2.10
8227;BMP180;4154;48.810;9.012;2023-02-28T04:55:46;97599.00;;;-2.10
8227;BMP180;4154;48.810;9.012;2023-02-28T04:58:13;97591.00;;;-2.10
8227;BMP180;4154;48.810;9.012;2023-02-28T05:00:40;97591.00;;;-2.10
8227;BMP180;4154;48.810;9.012;2023-02-28T05:03:06;97587.00;;;-2.30
8227;BMP180;4154;48.810;9.012;2023-02-28T05:05:32;97588.00;;;-2.10
8227;BMP180;4154;48.810;9.012;2023-02-28T05:07:58;97601.00;;;-2.10
8227;BMP180;4154;48.810;9.012;2023-02-28T05:10:24;97593.00;;;-2.20
8227;BMP180;4154;48.810;9.012;2023-02-28T05:12:49;97599.00;;;-2.10
8227;BMP180;4154;48.810;9.012;2023-02-28T05:15:16;97600.00;;;-2.30
8227;BMP180;4154;48.810;9.012;2023-02-28T05:17:43;97582.00;;;-2.20
8227;BMP180;4154;48.810;9.012;2023-02-28T05:20:10;97590.00;;;-2.20
8227;BMP180;4154;48.810;9.012;2023-02-28T05:22:40;97600.00;;;-2.10
8227;BMP180;4154;48.810;9.012;2023-02-28T05:25:06;97595.00;;;-2.20
8227;BMP180;4154;48.810;9.012;2023-02-28T05:27:33;97601.00;;;-2.30
8227;BMP180;4154;48.810;9.012;2023-02-28T05:29:59;97603.00;;;-2.30
8227;BMP180;4154;48.810;9.012;2023-02-28T05:32:27;97606.00;;;-2.20
8227;BMP180;4154;48.810;9.012;2023-02-28T05:34:53;97601.00;;;-2.30
8227;BMP180;4154;48.810;9.012;2023-02-28T05:37:19;97598.00;;;-2.10
8227;BMP180;4154;48.810;9.012;2023-02-28T05:39:45;97600.00;;;-2.20
8227;BMP180;4154;48.810;9.012;2023-02-28T05:42:11;97604.00;;;-2.30
8227;BMP180;4154;48.810;9.012;2023-02-28T05:44:37;97605.00;;;-2.20
8227;BMP180;4154;48.810;9.012;2023-02-28T05:47:03;97611.00;;;-2.10
8227;BMP180;4154;48.810;9.012;2023-02-28T05:49:28;97599.00;;;-2.20
8227;BMP180;4154;48.810;9.012;2023-02-28T05:51:54;97605.00;;;-2.20
8227;BMP180;4154;48.810;9.012;2023-02-28T05:54:20;97599.00;;;-2.20
8227;BMP180;4154;48.810;9.012;2023-02-28T05:56:45;97599.00;;;-2.20
8227;BMP180;4154;48.810;9.012;2023-02-28T05:59:14;97599.00;;;-2.30
8227;BMP180;4154;48.810;9.012;2023-02-28T06:01:45;97595.00;;;-2.20
8227;BMP180;4154;48.810;9.012;2023-02-28T06:04:16;97610.00;;;-2.10
8227;BMP180;4154;48.810;9.012;2023-02-28T06:06:45;97609.00;;;-2.10
8227;BMP180;4154;48.810;9.012;2023-02-28T06:09:12;97608.00;;;-2.00
8227;BMP180;4154;48.810;9.012;2023-02-28T06:11:37;97602.00;;;-2.10
8227;BMP180;4154;48.810;9.012;2023-02-28T06:14:04;97608.00;;;-2.40
8227;BMP180;4154;48.810;9.012;2023-02-28T06:16:32;97609.00;;;-2.10
8227;BMP180;4154;48.810;9.012;2023-02-28T06:19:01;97615.00;;;-2.10
8227;BMP180;4154;48.810;9.012;2023-02-28T06:21:28;97612.00;;;-2.10
8227;BMP180;4154;48.810;9.012;2023-02-28T06:23:55;97620.00;;;-2.00
8227;BMP180;4154;48.810;9.012;2023-02-28T06:26:20;97620.00;;;-2.10
8227;BMP180;4154;48.810;9.012;2023-02-28T06:28:47;97619.00;;;-2.10
8227;BMP180;4154;48.810;9.012;2023-02-28T06:31:16;97618.00;;;-2.00
8227;BMP180;4154;48.810;9.012;2023-02-28T06:33:43;97632.00;;;-1.90
8227;BMP180;4154;48.810;9.012;2023-02-28T06:36:12;97630.00;;;-2.00
8227;BMP180;4154;48.810;9.012;2023-02-28T06:38:39;97632.00;;;-2.10
8227;BMP180;4154;48.810;9.012;2023-02-28T06:41:06;97631.00;;;-2.00
8227;BMP180;4154;48.810;9.012;2023-02-28T06:43:37;97637.00;;;-2.00
8227;BMP180;4154;48.810;9.012;2023-02-28T06:46:06;97645.00;;;-2.10
8227;BMP180;4154;48.810;9.012;2023-02-28T06:48:32;97633.00;;;-2.00
8227;BMP180;4154;48.810;9.012;2023-02-28T06:51:09;97619.00;;;-2.10
8227;BMP180;4154;48.810;9.012;2023-02-28T06:53:36;97623.00;;;-2.10
8227;BMP180;4154;48.810;9.012;2023-02-28T06:56:09;97634.00;;;-1.90
8227;BMP180;4154;48.810;9.012;2023-02-28T06:58:35;97640.00;;;-2.00
8227;BMP180;4154;48.810;9.012;2023-02-28T07:01:03;97642.00;;;-2.00
8227;BMP180;4154;48.810;9.012;2023-02-28T07:03:29;97640.00;;;-1.90
8227;BMP180;4154;48.810;9.012;2023-02-28T07:05:55;97641.00;;;-1.90
8227;BMP180;4154;48.810;9.012;2023-02-28T07:08:23;97648.00;;;-1.90
8227;BMP180;4154;48.810;9.012;2023-02-28T07:10:53;97646.00;;;-1.90
8227;BMP180;4154;48.810;9.012;2023-02-28T07:13:19;97643.00;;;-1.80
8227;BMP180;4154;48.810;9.012;2023-02-28T07:16:00;97653.00;;;-1.90
8227;BMP180;4154;48.810;9.012;2023-02-28T07:18:27;97649.00;;;-1.80
8227;BMP180;4154;48.810;9.012;2023-02-28T07:20:53;97655.00;;;-1.70
8227;BMP180;4154;48.810;9.012;2023-02-28T07:23:20;97658.00;;;-1.70
8227;BMP180;4154;48.810;9.012;2023-02-28T07:25:46;97647.00;;;-1.70
8227;BMP180;4154;48.810;9.012;2023-02-28T07:28:13;97648.00;;;-1.90
8227;BMP180;4154;48.810;9.012;2023-02-28T07:30:39;97650.00;;;-1.70
8227;BMP180;4154;48.810;9.012;2023-02-28T07:33:05;97654.00;;;-1.70
8227;BMP180;4154;48.810;9.012;2023-02-28T07:35:31;97656.00;;;-1.60
8227;BMP180;4154;48.810;9.012;2023-02-28T07:38:00;97650.00;;;-1.50
8227;BMP180;4154;48.810;9.012;2023-02-28T07:40:26;97657.00;;;-1.40
8227;BMP180;4154;48.810;9.012;2023-02-28T07:42:52;97655.00;;;-1.50
8227;BMP180;4154;48.810;9.012;2023-02-28T07:45:19;97661.00;;;-1.60
8227;BMP180;4154;48.810;9.012;2023-02-28T07:47:44;97662.00;;;-1.60
8227;BMP180;4154;48.810;9.012;2023-02-28T07:50:14;97648.00;;;-1.50
8227;BMP180;4154;48.810;9.012;2023-02-28T07:52:42;97662.00;;;-1.50
8227;BMP180;4154;48.810;9.012;2023-02-28T07:55:09;97660.00;;;-1.50
8227;BMP180;4154;48.810;9.012;2023-02-28T07:57:36;97664.00;;;-1.50
8227;BMP180;4154;48.810;9.012;2023-02-28T08:00:05;97667.00;;;-1.50
8227;BMP180;4154;48.810;9.012;2023-02-28T08:02:30;97659.00;;;-1.50
8227;BMP180;4154;48.810;9.012;2023-02-28T08:04:56;97672.00;;;-1.40
8227;BMP180;4154;48.810;9.012;2023-02-28T08:07:22;97670.00;;;-1.60
8227;BMP180;4154;48.810;9.012;2023-02-28T08:09:48;97671.00;;;-1.50
8227;BMP180;4154;48.810;9.012;2023-02-28T08:12:14;97670.00;;;-1.40
8227;BMP180;4154;48.810;9.012;2023-02-28T08:14:40;97666.00;;;-1.40
8227;BMP180;4154;48.810;9.012;2023-02-28T08:17:06;97670.00;;;-1.50
8227;BMP180;4154;48.810;9.012;2023-02-28T08:19:32;97677.00;;;-1.50
8227;BMP180;4154;48.810;9.012;2023-02-28T08:21:58;97664.00;;;-1.40
8227;BMP180;4154;48.810;9.012;2023-02-28T08:24:24;97666.00;;;-1.40
8227;BMP180;4154;48.810;9.012;2023-02-28T08:26:50;97668.00;;;-1.40
8227;BMP180;4154;48.810;9.012;2023-02-28T08:29:16;97674.00;;;-1.20
8227;BMP180;4154;48.810;9.012;2023-02-28T08:31:42;97672.00;;;-1.30
8227;BMP180;4154;48.810;9.012;2023-02-28T08:34:10;97674.00;;;-1.40
8227;BMP180;4154;48.810;9.012;2023-02-28T08:36:37;97677.00;;;-1.40
8227;BMP180;4154;48.810;9.012;2023-02-28T08:39:03;97682.00;;;-1.40
8227;BMP180;4154;48.810;9.012;2023-02-28T08:41:30;97682.00;;;-1.50
8227;BMP180;4154;48.810;9.012;2023-02-28T08:43:56;97687.00;;;-1.30
8227;BMP180;4154;48.810;9.012;2023-02-28T08:46:24;97684.00;;;-1.30
8227;BMP180;4154;48.810;9.012;2023-02-28T08:48:55;97686.00;;;-1.30
8227;BMP180;4154;48.810;9.012;2023-02-28T08:51:24;97688.00;;;-1.20
8227;BMP180;4154;48.810;9.012;2023-02-28T08:53:59;97679.00;;;-1.30
8227;BMP180;4154;48.810;9.012;2023-02-28T08:56:28;97687.00;;;-1.20
8227;BMP180;4154;48.810;9.012;2023-02-28T08:58:56;97693.00;;;-1.10
8227;BMP180;4154;48.810;9.012;2023-02-28T09:01:28;97691.00;;;-1.10
8227;BMP180;4154;48.810;9.012;2023-02-28T09:03:55;97690.00;;;-0.90
8227;BMP180;4154;48.810;9.012;2023-02-28T09:06:24;97697.00;;;-1.00
8227;BMP180;4154;48.810;9.012;2023-02-28T09:08:51;97699.00;;;-1.00
8227;BMP180;4154;48.810;9.012;2023-02-28T09:11:19;97692.00;;;-1.00
8227;BMP180;4154;48.810;9.012;2023-02-28T09:13:45;97694.00;;;-1.00
8227;BMP180;4154;48.810;9.012;2023-02-28T09:16:15;97699.00;;;-0.90
8227;BMP180;4154;48.810;9.012;2023-02-28T09:18:42;97698.00;;;-0.90
8227;BMP180;4154;48.810;9.012;2023-02-28T09:21:11;97690.00;;;-0.90
8227;BMP180;4154;48.810;9.012;2023-02-28T09:23:40;97703.00;;;-1.00
8227;BMP180;4154;48.810;9.012;2023-02-28T09:26:07;97697.00;;;-1.00
8227;BMP180;4154;48.810;9.012;2023-02-28T09:28:33;97700.00;;;-0.80
8227;BMP180;4154;48.810;9.012;2023-02-28T09:30:59;97692.00;;;-0.70
8227;BMP180;4154;48.810;9.012;2023-02-28T09:33:25;97699.00;;;-0.80
8227;BMP180;4154;48.810;9.012;2023-02-28T09:35:58;97700.00;;;-0.70
8227;BMP180;4154;48.810;9.012;2023-02-28T09:38:24;97705.00;;;-0.50
8227;BMP180;4154;48.810;9.012;2023-02-28T09:40:57;97700.00;;;-0.50
8227;BMP180;4154;48.810;9.012;2023-02-28T09:43:32;97712.00;;;-0.40
8227;BMP180;4154;48.810;9.012;2023-02-28T09:46:28;97719.00;;;-0.40
8227;BMP180;4154;48.810;9.012;2023-02-28T09:48:59;97716.00;;;-0.40
8227;BMP180;4154;48.810;9.012;2023-02-28T09:51:43;97722.00;;;-0.30
8227;BMP180;4154;48.810;9.012;2023-02-28T09:54:16;97723.00;;;-0.20
8227;BMP180;4154;48.810;9.012;2023-02-28T09:56:50;97723.00;;;-0.30
8227;BMP180;4154;48.810;9.012;2023-02-28T10:00:03;97711.00;;;-0.30
8227;BMP180;4154;48.810;9.012;2023-02-28T10:03:06;97718.00;;;-0.30
8227;BMP180;4154;48.810;9.012;2023-02-28T10:05:48;97719.00;;;-0.10
8227;BMP180;4154;48.810;9.012;2023-02-28T10:08:38;97714.00;;;0.00
8227;BMP180;4154;48.810;9.012;2023-02-28T10:11:12;97725.00;;;0.10
8227;BMP180;4154;48.810;9.012;2023-02-28T10:16:43;97726.00;;;0.30
8227;BMP180;4154;48.810;9.012;2023-02-28T10:19:40;97727.00;;;0.30
8227;BMP180;4154;48.810;9.012;2023-02-28T10:22:37;97740.00;;;0.40
8227;BMP180;4154;48.810;9.012;2023-02-28T10:25:26;97738.00;;;0.50
8227;BMP180;4154;48.810;9.012;2023-02-28T10:27:59;97741.00;;;0.60
8227;BMP180;4154;48.810;9.012;2023-02-28T10:30:26;97735.00;;;0.70
8227;BMP180;4154;48.810;9.012;2023-02-28T10:32:52;97734.00;;;0.60
8227;BMP180;4154;48.810;9.012;2023-02-28T10:35:23;97733.00;;;0.60
8227;BMP180;4154;48.810;9.012;2023-02-28T10:37:57;97738.00;;;0.60
8227;BMP180;4154;48.810;9.012;2023-02-28T10:43:02;97730.00;;;0.90
8227;BMP180;4154;48.810;9.012;2023-02-28T10:45:32;97729.00;;;1.00
8227;BMP180;4154;48.810;9.012;2023-02-28T11:07:22;97731.00;;;1.30
8227;BMP180;4154;48.810;9.012;2023-02-28T11:09:53;97731.00;;;1.50
8227;BMP180;4154;48.810;9.012;2023-02-28T11:12:28;97730.00;;;1.70
8227;BMP180;4154;48.810;9.012;2023-02-28T11:15:06;97741.00;;;1.80
8227;BMP180;4154;48.810;9.012;2023-02-28T11:17:32;97726.00;;;1.70
8227;BMP180;4154;48.810;9.012;2023-02-28T11:20:04;97729.00;;;1.70
8227;BMP180;4154;48.810;9.012;2023-02-28T11:22:37;97719.00;;;1.50
8227;BMP180;4154;48.810;9.012;2023-02-28T11:25:19;97714.00;;;1.30
8227;BMP180;4154;48.810;9.012;2023-02-28T11:27:49;97717.00;;;1.40
8227;BMP180;4154;48.810;9.012;2023-02-28T11:30:27;97713.00;;;1.40
8227;BMP180;4154;48.810;9.012;2023-02-28T11:32:54;97719.00;;;1.40
8227;BMP180;4154;48.810;9.012;2023-02-28T11:35:32;97721.00;;;1.40
8227;BMP180;4154;48.810;9.012;2023-02-28T11:38:00;97717.00;;;1.30
8227;BMP180;4154;48.810;9.012;2023-02-28T11:40:48;97717.00;;;1.40
8227;BMP180;4154;48.810;9.012;2023-02-28T11:44:15;97719.00;;;1.50
8227;BMP180;4154;48.810;9.012;2023-02-28T11:46:58;97714.00;;;1.40
8227;BMP180;4154;48.810;9.012;2023-02-28T11:52:48;97719.00;;;1.40
8227;BMP180;4154;48.810;9.012;2023-02-28T11:55:36;97724.00;;;1.70
8227;BMP180;4154;48.810;9.012;2023-02-28T12:10:26;97700.00;;;2.10
8227;BMP180;4154;48.810;9.012;2023-02-28T12:18:50;97696.00;;;2.60
8227;BMP180;4154;48.810;9.012;2023-02-28T12:26:43;97698.00;;;2.60
8227;BMP180;4154;48.810;9.012;2023-02-28T12:29:26;97690.00;;;2.60
8227;BMP180;4154;48.810;9.012;2023-02-28T12:32:18;97680.00;;;2.60
8227;BMP180;4154;48.810;9.012;2023-02-28T12:34:52;97684.00;;;2.80
8227;BMP180;4154;48.810;9.012;2023-02-28T12:37:34;97688.00;;;2.90
8227;BMP180;4154;48.810;9.012;2023-02-28T12:40:13;97683.00;;;3.00
8227;BMP180;4154;48.810;9.012;2023-02-28T12:42:46;97674.00;;;2.90
8227;BMP180;4154;48.810;9.012;2023-02-28T12:45:15;97674.00;;;3.10
8227;BMP180;4154;48.810;9.012;2023-02-28T12:47:45;97681.00;;;3.10
8227;BMP180;4154;48.810;9.012;2023-02-28T12:50:13;97669.00;;;2.90
8227;BMP180;4154;48.810;9.012;2023-02-28T12:52:56;97669.00;;;2.90
8227;BMP180;4154;48.810;9.012;2023-02-28T12:55:38;97664.00;;;3.20
8227;BMP180;4154;48.810;9.012;2023-02-28T12:58:48;97663.00;;;3.20
8227;BMP180;4154;48.810;9.012;2023-02-28T13:01:51;97671.00;;;3.10
8227;BMP180;4154;48.810;9.012;2023-02-28T13:09:53;97662.00;;;3.20
8227;BMP180;4154;48.810;9.012;2023-02-28T13:12:20;97665.00;;;3.30
8227;BMP180;4154;48.810;9.012;2023-02-28T13:14:49;97668.00;;;3.40
8227;BMP180;4154;48.810;9.012;2023-02-28T13:17:24;97668.00;;;3.40
8227;BMP180;4154;48.810;9.012;2023-02-28T13:24:57;97669.00;;;3.70
8227;BMP180;4154;48.810;9.012;2023-02-28T13:27:32;97673.00;;;3.80
8227;BMP180;4154;48.810;9.012;2023-02-28T13:29:58;97666.00;;;3.90
8227;BMP180;4154;48.810;9.012;2023-02-28T13:32:33;97663.00;;;3.90
8227;BMP180;4154;48.810;9.012;2023-02-28T13:37:33;97657.00;;;4.00
8227;BMP180;4154;48.810;9.012;2023-02-28T13:40:33;97670.00;;;4.10
8227;BMP180;4154;48.810;9.012;2023-02-28T13:43:03;97659.00;;;4.00
8227;BMP180;4154;48.810;9.012;2023-02-28T13:45:32;97669.00;;;4.10
8227;BMP180;4154;48.810;9.012;2023-02-28T13:48:19;97670.00;;;4.20
8227;BMP180;4154;48.810;9.012;2023-02-28T13:50:48;97663.00;;;4.20
8227;BMP180;4154;48.810;9.012;2023-02-28T13:58:46;97678.00;;;4.20
8227;BMP180;4154;48.810;9.012;2023-02-28T14:01:56;97674.00;;;4.20
8227;BMP180;4154;48.810;9.012;2023-02-28T14:05:05;97676.00;;;4.10
8227;BMP180;4154;48.810;9.012;2023-02-28T14:07:47;97668.00;;;4.10
8227;BMP180;4154;48.810;9.012;2023-02-28T14:10:49;97667.00;;;4.20
8227;BMP180;4154;48.810;9.012;2023-02-28T14:13:41;97667.00;;;4.40
8227;BMP180;4154;48.810;9.012;2023-02-28T14:16:17;97656.00;;;4.30
8227;BMP180;4154;48.810;9.012;2023-02-28T14:19:00;97663.00;;;4.30
8227;BMP180;4154;48.810;9.012;2023-02-28T14:21:34;97663.00;;;4.40
8227;BMP180;4154;48.810;9.012;2023-02-28T14:24:03;97658.00;;;4.50
8227;BMP180;4154;48.810;9.012;2023-02-28T14:27:13;97662.00;;;4.50
8227;BMP180;4154;48.810;9.012;2023-02-28T14:32:33;97661.00;;;4.40
8227;BMP180;4154;48.810;9.012;2023-02-28T14:37:45;97653.00;;;4.30
8227;BMP180;4154;48.810;9.012;2023-02-28T14:40:27;97663.00;;;4.30
8227;BMP180;4154;48.810;9.012;2023-02-28T14:43:03;97662.00;;;4.50
8227;BMP180;4154;48.810;9.012;2023-02-28T14:45:32;97666.00;;;4.70
8227;BMP180;4154;48.810;9.012;2023-02-28T14:47:59;97665.00;;;4.70
8227;BMP180;4154;48.810;9.012;2023-02-28T14:50:36;97665.00;;;4.50
8227;BMP180;4154;48.810;9.012;2023-02-28T14:53:03;97665.00;;;4.40
8227;BMP180;4154;48.810;9.012;2023-02-28T14:55:34;97670.00;;;4.30
8227;BMP180;4154;48.810;9.012;2023-02-28T14:58:05;97671.00;;;4.20
8227;BMP180;4154;48.810;9.012;2023-02-28T15:00:49;97674.00;;;4.20
8227;BMP180;4154;48.810;9.012;2023-02-28T15:03:39;97673.00;;;4.20
8227;BMP180;4154;48.810;9.012;2023-02-28T15:06:14;97685.00;;;4.10
8227;BMP180;4154;48.810;9.012;2023-02-28T15:08:40;97670.00;;;4.10
8227;BMP180;4154;48.810;9.012;2023-02-28T15:11:15;97678.00;;;4.10
8227;BMP180;4154;48.810;9.012;2023-02-28T15:13:46;97680.00;;;4.10
8227;BMP180;4154;48.810;9.012;2023-02-28T15:16:18;97674.00;;;4.20
8227;BMP180;4154;48.810;9.012;2023-02-28T15:19:02;97689.00;;;4.10
8227;BMP180;4154;48.810;9.012;2023-02-28T15:21:33;97678.00;;;4.20
8227;BMP180;4154;48.810;9.012;2023-02-28T15:24:07;97672.00;;;4.30
8227;BMP180;4154;48.810;9.012;2023-02-28T15:26:43;97677.00;;;4.30
8227;BMP180;4154;48.810;9.012;2023-02-28T15:29:20;97672.00;;;4.30
8227;BMP180;4154;48.810;9.012;2023-02-28T15:32:02;97675.00;;;4.20
8227;BMP180;4154;48.810;9.012;2023-02-28T15:34:43;97679.00;;;4.10
8227;BMP180;4154;48.810;9.012;2023-02-28T15:37:40;97688.00;;;4.00
8227;BMP180;4154;48.810;9.012;2023-02-28T15:43:17;97677.00;;;3.80
8227;BMP180;4154;48.810;9.012;2023-02-28T15:45:50;97681.00;;;3.80
8227;BMP180;4154;48.810;9.012;2023-02-28T15:48:45;97675.00;;;3.80
8227;BMP180;4154;48.810;9.012;2023-02-28T15:51:22;97682.00;;;3.80
8227;BMP180;4154;48.810;9.012;2023-02-28T15:54:05;97681.00;;;3.60
8227;BMP180;4154;48.810;9.012;2023-02-28T15:56:45;97680.00;;;3.80
8227;BMP180;4154;48.810;9.012;2023-02-28T15:59:37;97686.00;;;3.80
8227;BMP180;4154;48.810;9.012;2023-02-28T16:02:19;97680.00;;;3.70
8227;BMP180;4154;48.810;9.012;2023-02-28T16:05:00;97675.00;;;3.60
8227;BMP180;4154;48.810;9.012;2023-02-28T16:07:27;97678.00;;;3.70
8227;BMP180;4154;48.810;9.012;2023-02-28T16:09:53;97688.00;;;3.80
8227;BMP180;4154;48.810;9.012;2023-02-28T16:12:23;97683.00;;;3.70
8227;BMP180;4154;48.810;9.012;2023-02-28T16:14:53;97682.00;;;3.50
8227;BMP180;4154;48.810;9.012;2023-02-28T16:17:29;97681.00;;;3.60
8227;BMP180;4154;48.810;9.012;2023-02-28T16:19:55;97684.00;;;3.40
8227;BMP180;4154;48.810;9.012;2023-02-28T16:22:22;97679.00;;;3.40
8227;BMP180;4154;48.810;9.012;2023-02-28T16:24:47;97685.00;;;3.50
8227;BMP180;4154;48.810;9.012;2023-02-28T16:27:29;97694.00;;;3.30
8227;BMP180;4154;48.810;9.012;2023-02-28T16:29:55;97696.00;;;3.30
8227;BMP180;4154;48.810;9.012;2023-02-28T16:32:21;97686.00;;;3.20
8227;BMP180;4154;48.810;9.012;2023-02-28T16:34:47;97689.00;;;3.20
8227;BMP180;4154;48.810;9.012;2023-02-28T16:37:16;97704.00;;;3.30
8227;BMP180;4154;48.810;9.012;2023-02-28T16:39:44;97692.00;;;3.20
8227;BMP180;4154;48.810;9.012;2023-02-28T16:42:27;97705.00;;;3.30
8227;BMP180;4154;48.810;9.012;2023-02-28T16:44:54;97708.00;;;3.30
8227;BMP180;4154;48.810;9.012;2023-02-28T16:47:21;97713.00;;;3.30
8227;BMP180;4154;48.810;9.012;2023-02-28T16:49:48;97712.00;;;3.20
8227;BMP180;4154;48.810;9.012;2023-02-28T16:52:14;97717.00;;;3.30